sensor_id;sensor_type;location;lat;lon;timestamp;P1;durP1;ratioP1;P2;durP2;ratioP2
63943;SDS011;50121;51.218;7.664;2023-04-15T00:00:54;9.82;;;7.35;;
63943;SDS011;50121;51.218;7.664;2023-04-15T00:03:41;8.75;;;7.35;;
63943;SDS011;50121;51.218;7.664;2023-04-15T00:06:09;8.55;;;7.10;;
63943;SDS011;50121;51.218;7.664;2023-04-15T00:08:55;10.05;;;7.35;;
63943;SDS011;50121;51.218;7.664;2023-04-15T00:11:23;10.73;;;7.15;;
63943;SDS011;50121;51.218;7.664;2023-04-15T00:13:50;11.00;;;7.40;;
63943;SDS011;50121;51.218;7.664;2023-04-15T00:16:18;11.25;;;7.30;;
63943;SDS011;50121;51.218;7.664;2023-04-15T00:19:22;9.23;;;6.85;;
63943;SDS011;50121;51.218;7.664;2023-04-15T00:21:50;9.73;;;7.22;;
63943;SDS011;50121;51.218;7.664;2023-04-15T00:24:18;11.40;;;7.70;;
63943;SDS011;50121;51.218;7.664;2023-04-15T00:27:04;8.73;;;7.50;;
63943;SDS011;50121;51.218;7.664;2023-04-15T00:29:32;9.25;;;8.02;;
63943;SDS011;50121;51.218;7.664;2023-04-15T00:32:19;10.55;;;7.57;;
63943;SDS011;50121;51.218;7.664;2023-04-15T00:35:05;16.55;;;10.48;;
63943;SDS011;50121;51.218;7.664;2023-04-15T00:37:33;20.00;;;14.35;;
63943;SDS011;50121;51.218;7.664;2023-04-15T00:40:24;10.93;;;8.13;;
63943;SDS011;50121;51.218;7.664;2023-04-15T00:42:53;12.43;;;8.45;;
63943;SDS011;50121;51.218;7.664;2023-04-15T00:45:39;10.27;;;7.03;;
63943;SDS011;50121;51.218;7.664;2023-04-15T00:48:24;11.90;;;8.60;;
63943;SDS011;50121;51.218;7.664;2023-04-15T00:50:52;9.25;;;7.68;;
63943;SDS011;50121;51.218;7.664;2023-04-15T00:53:37;11.60;;;8.15;;
63943;SDS011;50121;51.218;7.664;2023-04-15T00:56:24;9.65;;;7.63;;
63943;SDS011;50121;51.218;7.664;2023-04-15T00:59:11;9.55;;;7.82;;
63943;SDS011;50121;51.218;7.664;2023-04-15T01:01:56;10.27;;;7.22;;
63943;SDS011;50121;51.218;7.664;2023-04-15T01:05:00;9.73;;;7.40;;
63943;SDS011;50121;51.218;7.664;2023-04-15T01:07:29;12.82;;;7.40;;
63943;SDS011;50121;51.218;7.664;2023-04-15T01:09:57;9.23;;;7.53;;
63943;SDS011;50121;51.218;7.664;2023-04-15T01:12:43;12.30;;;7.80;;
63943;SDS011;50121;51.218;7.664;2023-04-15T01:15:11;12.15;;;8.15;;
63943;SDS011;50121;51.218;7.664;2023-04-15T01:18:15;8.77;;;7.50;;
63943;SDS011;50121;51.218;7.664;2023-04-15T01:20:42;9.20;;;7.57;;
63943;SDS011;50121;51.218;7.664;2023-04-15T01:23:27;10.68;;;7.18;;
63943;SDS011;50121;51.218;7.664;2023-04-15T01:26:13;10.25;;;6.88;;
63943;SDS011;50121;51.218;7.664;2023-04-15T01:29:18;8.20;;;7.20;;
63943;SDS011;50121;51.218;7.664;2023-04-15T01:32:23;10.18;;;7.57;;
63943;SDS011;50121;51.218;7.664;2023-04-15T01:35:26;8.25;;;7.13;;
63943;SDS011;50121;51.218;7.664;2023-04-15T01:38:30;9.68;;;7.00;;
63943;SDS011;50121;51.218;7.664;2023-04-15T01:40:58;10.80;;;8.00;;
63943;SDS011;50121;51.218;7.664;2023-04-15T01:43:44;9.30;;;7.50;;
63943;SDS011;50121;51.218;7.664;2023-04-15T01:46:30;10.57;;;7.53;;
63943;SDS011;50121;51.218;7.664;2023-04-15T01:49:18;7.95;;;7.15;;
63943;SDS011;50121;51.218;7.664;2023-04-15T01:52:04;8.27;;;7.47;;
63943;SDS011;50121;51.218;7.664;2023-04-15T01:54:33;8.48;;;7.57;;
63943;SDS011;50121;51.218;7.664;2023-04-15T01:57:20;9.13;;;7.30;;
63943;SDS011;50121;51.218;7.664;2023-04-15T02:00:23;9.38;;;7.75;;
63943;SDS011;50121;51.218;7.664;2023-04-15T02:02:52;9.30;;;7.47;;
63943;SDS011;50121;51.218;7.664;2023-04-15T02:05:25;8.85;;;7.60;;
63943;SDS011;50121;51.218;7.664;2023-04-15T02:08:12;12.77;;;8.57;;
63943;SDS011;50121;51.218;7.664;2023-04-15T02:11:16;9.27;;;8.02;;
63943;SDS011;50121;51.218;7.664;2023-04-15T02:13:46;8.80;;;7.90;;
63943;SDS011;50121;51.218;7.664;2023-04-15T02:16:32;10.57;;;8.13;;
63943;SDS011;50121;51.218;7.664;2023-04-15T02:19:18;11.35;;;7.93;;
63943;SDS011;50121;51.218;7.664;2023-04-15T02:21:47;10.75;;;8.00;;
63943;SDS011;50121;51.218;7.664;2023-04-15T02:24:35;11.10;;;8.25;;
63943;SDS011;50121;51.218;7.664;2023-04-15T02:27:03;10.68;;;8.02;;
63943;SDS011;50121;51.218;7.664;2023-04-15T02:29:50;9.48;;;8.43;;
63943;SDS011;50121;51.218;7.664;2023-04-15T02:32:36;10.75;;;8.48;;
63943;SDS011;50121;51.218;7.664;2023-04-15T02:35:05;10.15;;;8.57;;
63943;SDS011;50121;51.218;7.664;2023-04-15T02:37:36;11.55;;;8.75;;
63943;SDS011;50121;51.218;7.664;2023-04-15T02:40:28;9.43;;;7.88;;
63943;SDS011;50121;51.218;7.664;2023-04-15T02:42:56;13.60;;;7.82;;
63943;SDS011;50121;51.218;7.664;2023-04-15T02:45:46;11.10;;;7.60;;
63943;SDS011;50121;51.218;7.664;2023-04-15T02:48:15;10.23;;;8.15;;
63943;SDS011;50121;51.218;7.664;2023-04-15T02:50:46;12.45;;;7.95;;
63943;SDS011;50121;51.218;7.664;2023-04-15T02:53:33;10.35;;;7.82;;
63943;SDS011;50121;51.218;7.664;2023-04-15T02:56:20;9.88;;;7.88;;
63943;SDS011;50121;51.218;7.664;2023-04-15T02:58:50;12.32;;;8.52;;
63943;SDS011;50121;51.218;7.664;2023-04-15T03:01:36;9.60;;;7.82;;
63943;SDS011;50121;51.218;7.664;2023-04-15T03:04:39;10.77;;;8.15;;
63943;SDS011;50121;51.218;7.664;2023-04-15T03:07:08;8.88;;;7.85;;
63943;SDS011;50121;51.218;7.664;2023-04-15T03:09:54;9.65;;;7.80;;
63943;SDS011;50121;51.218;7.664;2023-04-15T03:12:40;12.40;;;7.55;;
63943;SDS011;50121;51.218;7.664;2023-04-15T03:15:31;11.05;;;8.32;;
63943;SDS011;50121;51.218;7.664;2023-04-15T03:18:01;10.27;;;7.95;;
63943;SDS011;50121;51.218;7.664;2023-04-15T03:20:30;10.70;;;8.30;;
63943;SDS011;50121;51.218;7.664;2023-04-15T03:23:16;11.18;;;8.63;;
63943;SDS011;50121;51.218;7.664;2023-04-15T03:25:45;10.25;;;8.35;;
63943;SDS011;50121;51.218;7.664;2023-04-15T03:28:15;13.48;;;8.48;;
63943;SDS011;50121;51.218;7.664;2023-04-15T03:30:44;10.90;;;7.90;;
63943;SDS011;50121;51.218;7.664;2023-04-15T03:33:13;11.75;;;7.50;;
63943;SDS011;50121;51.218;7.664;2023-04-15T03:35:59;10.90;;;8.25;;
63943;SDS011;50121;51.218;7.664;2023-04-15T03:38:45;9.93;;;8.02;;
63943;SDS011;50121;51.218;7.664;2023-04-15T03:41:31;9.25;;;8.00;;
63943;SDS011;50121;51.218;7.664;2023-04-15T03:44:00;10.05;;;8.02;;
63943;SDS011;50121;51.218;7.664;2023-04-15T03:47:04;9.75;;;8.57;;
63943;SDS011;50121;51.218;7.664;2023-04-15T03:49:32;10.27;;;8.10;;
63943;SDS011;50121;51.218;7.664;2023-04-15T03:52:18;10.05;;;8.13;;
63943;SDS011;50121;51.218;7.664;2023-04-15T03:54:47;12.80;;;8.23;;
63943;SDS011;50121;51.218;7.664;2023-04-15T03:57:34;13.38;;;9.00;;
63943;SDS011;50121;51.218;7.664;2023-04-15T04:00:06;11.23;;;8.18;;
63943;SDS011;50121;51.218;7.664;2023-04-15T04:02:38;14.38;;;7.75;;
63943;SDS011;50121;51.218;7.664;2023-04-15T04:05:07;9.57;;;7.72;;
63943;SDS011;50121;51.218;7.664;2023-04-15T04:07:53;11.18;;;8.43;;
63943;SDS011;50121;51.218;7.664;2023-04-15T04:10:22;10.65;;;8.02;;
63943;SDS011;50121;51.218;7.664;2023-04-15T04:13:08;10.80;;;8.73;;
63943;SDS011;50121;51.218;7.664;2023-04-15T04:15:37;10.23;;;8.35;;
63943;SDS011;50121;51.218;7.664;2023-04-15T04:18:23;11.18;;;8.88;;
63943;SDS011;50121;51.218;7.664;2023-04-15T04:20:52;11.00;;;8.05;;
63943;SDS011;50121;51.218;7.664;2023-04-15T04:23:38;11.10;;;8.70;;
63943;SDS011;50121;51.218;7.664;2023-04-15T04:26:24;10.90;;;8.55;;
63943;SDS011;50121;51.218;7.664;2023-04-15T04:29:11;10.63;;;8.52;;
63943;SDS011;50121;51.218;7.664;2023-04-15T04:31:40;14.55;;;9.07;;
63943;SDS011;50121;51.218;7.664;2023-04-15T04:34:08;16.90;;;9.73;;
63943;SDS011;50121;51.218;7.664;2023-04-15T04:36:54;14.90;;;9.43;;
63943;SDS011;50121;51.218;7.664;2023-04-15T04:39:23;12.05;;;9.85;;
63943;SDS011;50121;51.218;7.664;2023-04-15T04:42:09;11.88;;;9.32;;
63943;SDS011;50121;51.218;7.664;2023-04-15T04:44:38;12.20;;;9.25;;
63943;SDS011;50121;51.218;7.664;2023-04-15T04:47:24;12.60;;;8.60;;
63943;SDS011;50121;51.218;7.664;2023-04-15T04:50:10;13.13;;;8.52;;
63943;SDS011;50121;51.218;7.664;2023-04-15T04:52:57;14.82;;;9.25;;
63943;SDS011;50121;51.218;7.664;2023-04-15T04:55:43;11.88;;;8.77;;
63943;SDS011;50121;51.218;7.664;2023-04-15T04:58:46;12.23;;;9.40;;
63943;SDS011;50121;51.218;7.664;2023-04-15T05:01:15;14.48;;;9.40;;
63943;SDS011;50121;51.218;7.664;2023-04-15T05:04:02;15.27;;;9.48;;
63943;SDS011;50121;51.218;7.664;2023-04-15T05:06:49;10.60;;;9.02;;
63943;SDS011;50121;51.218;7.664;2023-04-15T05:09:36;13.23;;;9.00;;
63943;SDS011;50121;51.218;7.664;2023-04-15T05:12:22;17.00;;;9.02;;
63943;SDS011;50121;51.218;7.664;2023-04-15T05:15:25;10.90;;;8.75;;
63943;SDS011;50121;51.218;7.664;2023-04-15T05:18:12;13.15;;;8.75;;
63943;SDS011;50121;51.218;7.664;2023-04-15T05:20:41;11.57;;;8.45;;
63943;SDS011;50121;51.218;7.664;2023-04-15T05:23:27;13.20;;;8.90;;
63943;SDS011;50121;51.218;7.664;2023-04-15T05:26:13;11.15;;;8.85;;
63943;SDS011;50121;51.218;7.664;2023-04-15T05:29:00;11.95;;;8.98;;
63943;SDS011;50121;51.218;7.664;2023-04-15T05:31:46;11.45;;;8.65;;
63943;SDS011;50121;51.218;7.664;2023-04-15T05:34:49;12.10;;;8.75;;
63943;SDS011;50121;51.218;7.664;2023-04-15T05:37:18;12.73;;;8.52;;
63943;SDS011;50121;51.218;7.664;2023-04-15T05:39:48;9.02;;;8.07;;
63943;SDS011;50121;51.218;7.664;2023-04-15T05:42:17;11.73;;;8.98;;
63943;SDS011;50121;51.218;7.664;2023-04-15T05:44:46;12.00;;;9.13;;
63943;SDS011;50121;51.218;7.664;2023-04-15T05:47:32;10.88;;;8.63;;
63943;SDS011;50121;51.218;7.664;2023-04-15T05:50:01;17.40;;;9.45;;
63943;SDS011;50121;51.218;7.664;2023-04-15T05:52:47;12.30;;;9.07;;
63943;SDS011;50121;51.218;7.664;2023-04-15T05:55:33;12.85;;;9.27;;
63943;SDS011;50121;51.218;7.664;2023-04-15T05:58:02;12.45;;;8.95;;
63943;SDS011;50121;51.218;7.664;2023-04-15T06:00:31;12.35;;;9.13;;
63943;SDS011;50121;51.218;7.664;2023-04-15T06:03:01;13.98;;;8.55;;
63943;SDS011;50121;51.218;7.664;2023-04-15T06:05:47;11.25;;;8.63;;
63943;SDS011;50121;51.218;7.664;2023-04-15T06:08:16;12.65;;;9.43;;
63943;SDS011;50121;51.218;7.664;2023-04-15T06:11:03;11.55;;;8.60;;
63943;SDS011;50121;51.218;7.664;2023-04-15T06:13:32;11.70;;;9.38;;
63943;SDS011;50121;51.218;7.664;2023-04-15T06:16:01;11.27;;;9.18;;
63943;SDS011;50121;51.218;7.664;2023-04-15T06:18:48;10.15;;;8.27;;
63943;SDS011;50121;51.218;7.664;2023-04-15T06:21:17;14.90;;;8.50;;
63943;SDS011;50121;51.218;7.664;2023-04-15T06:24:03;11.57;;;9.00;;
63943;SDS011;50121;51.218;7.664;2023-04-15T06:26:49;10.38;;;8.52;;
63943;SDS011;50121;51.218;7.664;2023-04-15T06:29:35;12.30;;;9.07;;
63943;SDS011;50121;51.218;7.664;2023-04-15T06:32:39;11.18;;;9.60;;
63943;SDS011;50121;51.218;7.664;2023-04-15T06:35:08;11.80;;;8.90;;
63943;SDS011;50121;51.218;7.664;2023-04-15T06:38:12;14.25;;;9.43;;
63943;SDS011;50121;51.218;7.664;2023-04-15T06:40:41;14.90;;;8.88;;
63943;SDS011;50121;51.218;7.664;2023-04-15T06:43:10;12.07;;;8.48;;
63943;SDS011;50121;51.218;7.664;2023-04-15T06:45:39;11.63;;;8.68;;
63943;SDS011;50121;51.218;7.664;2023-04-15T06:48:07;10.68;;;8.80;;
63943;SDS011;50121;51.218;7.664;2023-04-15T06:50:36;10.75;;;8.93;;
63943;SDS011;50121;51.218;7.664;2023-04-15T06:53:23;10.55;;;8.10;;
63943;SDS011;50121;51.218;7.664;2023-04-15T06:56:29;13.02;;;8.32;;
63943;SDS011;50121;51.218;7.664;2023-04-15T06:59:33;16.58;;;10.57;;
63943;SDS011;50121;51.218;7.664;2023-04-15T07:02:02;12.00;;;8.55;;
63943;SDS011;50121;51.218;7.664;2023-04-15T07:04:48;12.50;;;8.93;;
63943;SDS011;50121;51.218;7.664;2023-04-15T07:07:34;15.90;;;10.30;;
63943;SDS011;50121;51.218;7.664;2023-04-15T07:10:04;15.38;;;10.30;;
63943;SDS011;50121;51.218;7.664;2023-04-15T07:12:50;14.18;;;9.38;;
63943;SDS011;50121;51.218;7.664;2023-04-15T07:15:19;12.20;;;9.55;;
63943;SDS011;50121;51.218;7.664;2023-04-15T07:17:48;16.85;;;10.10;;
63943;SDS011;50121;51.218;7.664;2023-04-15T07:20:18;14.85;;;10.07;;
63943;SDS011;50121;51.218;7.664;2023-04-15T07:22:46;11.23;;;9.13;;
63943;SDS011;50121;51.218;7.664;2023-04-15T07:25:15;12.77;;;9.48;;
63943;SDS011;50121;51.218;7.664;2023-04-15T07:28:02;11.52;;;8.48;;
63943;SDS011;50121;51.218;7.664;2023-04-15T07:30:30;13.48;;;9.18;;
63943;SDS011;50121;51.218;7.664;2023-04-15T07:33:00;18.15;;;12.23;;
63943;SDS011;50121;51.218;7.664;2023-04-15T07:35:29;11.48;;;8.32;;
63943;SDS011;50121;51.218;7.664;2023-04-15T07:38:15;13.77;;;8.48;;
63943;SDS011;50121;51.218;7.664;2023-04-15T07:41:02;10.65;;;8.38;;
63943;SDS011;50121;51.218;7.664;2023-04-15T07:43:49;12.10;;;8.50;;
63943;SDS011;50121;51.218;7.664;2023-04-15T07:46:35;8.52;;;7.53;;
63943;SDS011;50121;51.218;7.664;2023-04-15T07:49:05;8.88;;;7.95;;
63943;SDS011;50121;51.218;7.664;2023-04-15T07:51:34;10.60;;;8.23;;
63943;SDS011;50121;51.218;7.664;2023-04-15T07:54:21;11.38;;;6.85;;
63943;SDS011;50121;51.218;7.664;2023-04-15T07:57:06;11.65;;;7.30;;
63943;SDS011;50121;51.218;7.664;2023-04-15T07:59:53;8.77;;;7.43;;
63943;SDS011;50121;51.218;7.664;2023-04-15T08:02:59;9.43;;;7.35;;
63943;SDS011;50121;51.218;7.664;2023-04-15T08:05:28;8.85;;;7.95;;
63943;SDS011;50121;51.218;7.664;2023-04-15T08:08:32;8.48;;;7.57;;
63943;SDS011;50121;51.218;7.664;2023-04-15T08:11:01;9.52;;;7.05;;
63943;SDS011;50121;51.218;7.664;2023-04-15T08:13:30;8.43;;;6.88;;
63943;SDS011;50121;51.218;7.664;2023-04-15T08:16:19;7.95;;;5.13;;
63943;SDS011;50121;51.218;7.664;2023-04-15T08:19:06;9.25;;;5.93;;
63943;SDS011;50121;51.218;7.664;2023-04-15T08:21:35;8.88;;;7.28;;
63943;SDS011;50121;51.218;7.664;2023-04-15T08:24:04;9.32;;;8.27;;
63943;SDS011;50121;51.218;7.664;2023-04-15T08:26:51;11.25;;;10.00;;
63943;SDS011;50121;51.218;7.664;2023-04-15T08:29:55;9.73;;;8.83;;
63943;SDS011;50121;51.218;7.664;2023-04-15T08:32:59;10.30;;;9.23;;
63943;SDS011;50121;51.218;7.664;2023-04-15T08:35:45;9.93;;;8.93;;
63943;SDS011;50121;51.218;7.664;2023-04-15T08:38:31;10.27;;;9.27;;
63943;SDS011;50121;51.218;7.664;2023-04-15T08:41:06;10.02;;;9.07;;
63943;SDS011;50121;51.218;7.664;2023-04-15T08:43:57;9.88;;;8.88;;
63943;SDS011;50121;51.218;7.664;2023-04-15T08:46:44;9.85;;;8.85;;
63943;SDS011;50121;51.218;7.664;2023-04-15T08:49:47;8.93;;;8.07;;
63943;SDS011;50121;51.218;7.664;2023-04-15T08:52:38;8.80;;;7.93;;
63943;SDS011;50121;51.218;7.664;2023-04-15T08:55:26;8.60;;;7.72;;
63943;SDS011;50121;51.218;7.664;2023-04-15T08:58:14;15.50;;;14.32;;
63943;SDS011;50121;51.218;7.664;2023-04-15T09:01:01;8.02;;;7.22;;
63943;SDS011;50121;51.218;7.664;2023-04-15T09:03:50;8.13;;;7.15;;
63943;SDS011;50121;51.218;7.664;2023-04-15T09:09:07;8.00;;;7.20;;
63943;SDS011;50121;51.218;7.664;2023-04-15T09:11:53;6.68;;;6.18;;
63943;SDS011;50121;51.218;7.664;2023-04-15T09:14:41;7.28;;;6.72;;
63943;SDS011;50121;51.218;7.664;2023-04-15T09:17:27;7.75;;;5.32;;
63943;SDS011;50121;51.218;7.664;2023-04-15T09:20:12;5.95;;;5.25;;
63943;SDS011;50121;51.218;7.664;2023-04-15T09:22:58;8.07;;;7.28;;
63943;SDS011;50121;51.218;7.664;2023-04-15T09:25:45;6.38;;;5.60;;
63943;SDS011;50121;51.218;7.664;2023-04-15T09:28:32;8.15;;;7.35;;
63943;SDS011;50121;51.218;7.664;2023-04-15T09:31:27;8.40;;;7.60;;
63943;SDS011;50121;51.218;7.664;2023-04-15T09:33:57;8.18;;;7.38;;
63943;SDS011;50121;51.218;7.664;2023-04-15T09:37:01;9.30;;;8.50;;
63943;SDS011;50121;51.218;7.664;2023-04-15T09:39:50;10.85;;;9.60;;
63943;SDS011;50121;51.218;7.664;2023-04-15T09:42:36;8.20;;;7.40;;
63943;SDS011;50121;51.218;7.664;2023-04-15T09:45:22;10.45;;;9.35;;
63943;SDS011;50121;51.218;7.664;2023-04-15T09:48:15;8.93;;;7.95;;
63943;SDS011;50121;51.218;7.664;2023-04-15T09:50:44;25.63;;;15.18;;
63943;SDS011;50121;51.218;7.664;2023-04-15T09:53:32;33.15;;;16.27;;
63943;SDS011;50121;51.218;7.664;2023-04-15T09:56:02;13.27;;;10.82;;
63943;SDS011;50121;51.218;7.664;2023-04-15T09:58:31;10.35;;;9.13;;
63943;SDS011;50121;51.218;7.664;2023-04-15T10:01:19;10.38;;;7.90;;
63943;SDS011;50121;51.218;7.664;2023-04-15T10:04:05;10.32;;;8.50;;
63943;SDS011;50121;51.218;7.664;2023-04-15T10:06:34;12.00;;;10.13;;
63943;SDS011;50121;51.218;7.664;2023-04-15T10:09:21;10.95;;;9.85;;
63943;SDS011;50121;51.218;7.664;2023-04-15T10:12:07;12.15;;;10.35;;
63943;SDS011;50121;51.218;7.664;2023-04-15T10:14:36;11.82;;;9.93;;
63943;SDS011;50121;51.218;7.664;2023-04-15T10:17:23;15.82;;;14.07;;
63943;SDS011;50121;51.218;7.664;2023-04-15T10:20:12;11.48;;;9.95;;
63943;SDS011;50121;51.218;7.664;2023-04-15T10:22:41;10.38;;;8.88;;
63943;SDS011;50121;51.218;7.664;2023-04-15T10:25:47;12.50;;;10.68;;
63943;SDS011;50121;51.218;7.664;2023-04-15T10:28:34;11.10;;;9.85;;
63943;SDS011;50121;51.218;7.664;2023-04-15T10:31:20;13.25;;;10.80;;
63943;SDS011;50121;51.218;7.664;2023-04-15T10:34:23;13.02;;;11.05;;
63943;SDS011;50121;51.218;7.664;2023-04-15T10:37:10;12.68;;;10.52;;
63943;SDS011;50121;51.218;7.664;2023-04-15T10:39:57;11.25;;;9.43;;
63943;SDS011;50121;51.218;7.664;2023-04-15T10:42:25;11.93;;;9.68;;
63943;SDS011;50121;51.218;7.664;2023-04-15T10:45:36;15.27;;;12.15;;
63943;SDS011;50121;51.218;7.664;2023-04-15T10:48:22;13.57;;;11.63;;
63943;SDS011;50121;51.218;7.664;2023-04-15T10:50:55;12.45;;;10.90;;
63943;SDS011;50121;51.218;7.664;2023-04-15T10:53:27;13.02;;;10.38;;
63943;SDS011;50121;51.218;7.664;2023-04-15T10:56:31;13.00;;;11.45;;
63943;SDS011;50121;51.218;7.664;2023-04-15T10:59:17;18.85;;;14.85;;
63943;SDS011;50121;51.218;7.664;2023-04-15T11:02:05;19.52;;;14.85;;
63943;SDS011;50121;51.218;7.664;2023-04-15T11:05:10;12.05;;;10.30;;
63943;SDS011;50121;51.218;7.664;2023-04-15T11:07:40;11.65;;;10.40;;
63943;SDS011;50121;51.218;7.664;2023-04-15T11:13:20;11.77;;;10.52;;
63943;SDS011;50121;51.218;7.664;2023-04-15T11:16:06;11.95;;;9.75;;
63943;SDS011;50121;51.218;7.664;2023-04-15T11:18:53;12.45;;;11.15;;
63943;SDS011;50121;51.218;7.664;2023-04-15T11:21:24;12.98;;;11.48;;
63943;SDS011;50121;51.218;7.664;2023-04-15T11:24:22;12.82;;;11.43;;
63943;SDS011;50121;51.218;7.664;2023-04-15T11:27:19;11.18;;;9.80;;
63943;SDS011;50121;51.218;7.664;2023-04-15T11:29:48;11.32;;;9.52;;
63943;SDS011;50121;51.218;7.664;2023-04-15T11:32:34;11.40;;;9.95;;
63943;SDS011;50121;51.218;7.664;2023-04-15T11:35:03;12.05;;;10.77;;
63943;SDS011;50121;51.218;7.664;2023-04-15T11:37:32;11.55;;;10.10;;
63943;SDS011;50121;51.218;7.664;2023-04-15T11:40:22;14.30;;;11.43;;
63943;SDS011;50121;51.218;7.664;2023-04-15T11:43:09;11.23;;;9.45;;
63943;SDS011;50121;51.218;7.664;2023-04-15T11:48:40;12.75;;;8.48;;
63943;SDS011;50121;51.218;7.664;2023-04-15T11:51:27;9.88;;;8.88;;
63943;SDS011;50121;51.218;7.664;2023-04-15T11:54:19;10.50;;;8.55;;
63943;SDS011;50121;51.218;7.664;2023-04-15T11:56:51;9.68;;;8.50;;
63943;SDS011;50121;51.218;7.664;2023-04-15T11:59:20;9.68;;;8.23;;
63943;SDS011;50121;51.218;7.664;2023-04-15T12:02:11;9.63;;;8.63;;
63943;SDS011;50121;51.218;7.664;2023-04-15T12:05:04;8.80;;;8.00;;
63943;SDS011;50121;51.218;7.664;2023-04-15T12:07:57;8.90;;;8.00;;
63943;SDS011;50121;51.218;7.664;2023-04-15T12:10:25;7.82;;;7.13;;
63943;SDS011;50121;51.218;7.664;2023-04-15T12:13:11;7.82;;;7.03;;
63943;SDS011;50121;51.218;7.664;2023-04-15T12:15:38;8.63;;;7.82;;
63943;SDS011;50121;51.218;7.664;2023-04-15T12:18:15;9.05;;;8.15;;
63943;SDS011;50121;51.218;7.664;2023-04-15T12:20:43;8.13;;;7.32;;
63943;SDS011;50121;51.218;7.664;2023-04-15T12:23:11;8.80;;;7.78;;
63943;SDS011;50121;51.218;7.664;2023-04-15T12:25:39;9.40;;;8.48;;
63943;SDS011;50121;51.218;7.664;2023-04-15T12:28:10;9.38;;;8.48;;
63943;SDS011;50121;51.218;7.664;2023-04-15T12:30:55;8.48;;;7.65;;
63943;SDS011;50121;51.218;7.664;2023-04-15T12:33:23;8.32;;;7.38;;
63943;SDS011;50121;51.218;7.664;2023-04-15T12:36:16;7.87;;;7.07;;
63943;SDS011;50121;51.218;7.664;2023-04-15T12:39:03;7.70;;;6.95;;
63943;SDS011;50121;51.218;7.664;2023-04-15T12:41:50;8.57;;;7.70;;
63943;SDS011;50121;51.218;7.664;2023-04-15T12:44:18;8.40;;;7.60;;
63943;SDS011;50121;51.218;7.664;2023-04-15T12:47:05;8.07;;;7.28;;
63943;SDS011;50121;51.218;7.664;2023-04-15T12:49:51;8.45;;;7.65;;
63943;SDS011;50121;51.218;7.664;2023-04-15T12:52:19;9.40;;;8.40;;
63943;SDS011;50121;51.218;7.664;2023-04-15T12:55:05;8.80;;;7.93;;
63943;SDS011;50121;51.218;7.664;2023-04-15T12:57:51;9.18;;;8.27;;
63943;SDS011;50121;51.218;7.664;2023-04-15T13:00:55;10.85;;;8.95;;
63943;SDS011;50121;51.218;7.664;2023-04-15T13:03:41;9.77;;;8.77;;
63943;SDS011;50121;51.218;7.664;2023-04-15T13:06:08;11.20;;;9.32;;
63943;SDS011;50121;51.218;7.664;2023-04-15T13:08:54;10.05;;;8.60;;
63943;SDS011;50121;51.218;7.664;2023-04-15T13:11:23;11.70;;;9.23;;
63943;SDS011;50121;51.218;7.664;2023-04-15T13:14:10;11.43;;;9.60;;
63943;SDS011;50121;51.218;7.664;2023-04-15T13:16:56;11.90;;;9.25;;
63943;SDS011;50121;51.218;7.664;2023-04-15T13:19:42;10.98;;;9.23;;
63943;SDS011;50121;51.218;7.664;2023-04-15T13:22:10;9.65;;;8.55;;
63943;SDS011;50121;51.218;7.664;2023-04-15T13:25:14;9.77;;;8.80;;
63943;SDS011;50121;51.218;7.664;2023-04-15T13:28:00;9.20;;;8.30;;
63943;SDS011;50121;51.218;7.664;2023-04-15T13:30:46;8.32;;;7.50;;
63943;SDS011;50121;51.218;7.664;2023-04-15T13:33:15;7.68;;;6.97;;
63943;SDS011;50121;51.218;7.664;2023-04-15T13:35:44;9.00;;;8.10;;
63943;SDS011;50121;51.218;7.664;2023-04-15T13:38:12;7.80;;;7.10;;
63943;SDS011;50121;51.218;7.664;2023-04-15T13:41:15;8.18;;;7.38;;
63943;SDS011;50121;51.218;7.664;2023-04-15T13:44:01;8.07;;;7.32;;
63943;SDS011;50121;51.218;7.664;2023-04-15T13:46:32;8.52;;;7.63;;
63943;SDS011;50121;51.218;7.664;2023-04-15T13:49:15;8.98;;;8.07;;
63943;SDS011;50121;51.218;7.664;2023-04-15T13:52:01;8.95;;;8.07;;
63943;SDS011;50121;51.218;7.664;2023-04-15T13:54:28;9.70;;;8.75;;
63943;SDS011;50121;51.218;7.664;2023-04-15T13:56:56;8.98;;;8.18;;
63943;SDS011;50121;51.218;7.664;2023-04-15T13:59:42;8.93;;;8.13;;
63943;SDS011;50121;51.218;7.664;2023-04-15T14:02:28;9.73;;;8.77;;
63943;SDS011;50121;51.218;7.664;2023-04-15T14:05:32;9.38;;;8.48;;
63943;SDS011;50121;51.218;7.664;2023-04-15T14:07:59;10.07;;;9.18;;
63943;SDS011;50121;51.218;7.664;2023-04-15T14:10:27;10.40;;;9.35;;
63943;SDS011;50121;51.218;7.664;2023-04-15T14:12:54;10.00;;;9.00;;
63943;SDS011;50121;51.218;7.664;2023-04-15T14:15:22;11.70;;;10.02;;
63943;SDS011;50121;51.218;7.664;2023-04-15T14:17:49;9.85;;;8.85;;
63943;SDS011;50121;51.218;7.664;2023-04-15T14:20:35;10.85;;;8.75;;
63943;SDS011;50121;51.218;7.664;2023-04-15T14:23:22;11.60;;;8.75;;
63943;SDS011;50121;51.218;7.664;2023-04-15T14:26:08;10.45;;;8.40;;
63943;SDS011;50121;51.218;7.664;2023-04-15T14:29:12;10.23;;;8.77;;
63943;SDS011;50121;51.218;7.664;2023-04-15T14:31:57;9.75;;;8.75;;
63943;SDS011;50121;51.218;7.664;2023-04-15T14:34:43;10.00;;;9.00;;
63943;SDS011;50121;51.218;7.664;2023-04-15T14:37:47;10.23;;;9.23;;
63943;SDS011;50121;51.218;7.664;2023-04-15T14:40:32;11.30;;;10.00;;
63943;SDS011;50121;51.218;7.664;2023-04-15T14:43:17;12.20;;;10.68;;
63943;SDS011;50121;51.218;7.664;2023-04-15T14:45:44;12.05;;;10.43;;
63943;SDS011;50121;51.218;7.664;2023-04-15T14:48:31;9.93;;;8.93;;
63943;SDS011;50121;51.218;7.664;2023-04-15T14:50:58;10.07;;;9.07;;
63943;SDS011;50121;51.218;7.664;2023-04-15T14:53:26;10.30;;;9.30;;
63943;SDS011;50121;51.218;7.664;2023-04-15T14:55:54;10.63;;;9.40;;
63943;SDS011;50121;51.218;7.664;2023-04-15T14:58:21;10.38;;;9.35;;
63943;SDS011;50121;51.218;7.664;2023-04-15T15:00:49;12.88;;;10.98;;
63943;SDS011;50121;51.218;7.664;2023-04-15T15:03:35;9.10;;;8.20;;
63943;SDS011;50121;51.218;7.664;2023-04-15T15:06:03;9.63;;;8.63;;
63943;SDS011;50121;51.218;7.664;2023-04-15T15:08:49;10.13;;;8.65;;
63943;SDS011;50121;51.218;7.664;2023-04-15T15:11:52;8.07;;;7.28;;
63943;SDS011;50121;51.218;7.664;2023-04-15T15:14:56;9.13;;;8.23;;
63943;SDS011;50121;51.218;7.664;2023-04-15T15:17:42;8.80;;;7.90;;
63943;SDS011;50121;51.218;7.664;2023-04-15T15:20:28;12.23;;;8.45;;
63943;SDS011;50121;51.218;7.664;2023-04-15T15:23:32;8.27;;;7.40;;
63943;SDS011;50121;51.218;7.664;2023-04-15T15:26:18;7.97;;;7.35;;
63943;SDS011;50121;51.218;7.664;2023-04-15T15:29:04;8.93;;;8.13;;
63943;SDS011;50121;51.218;7.664;2023-04-15T15:31:35;9.73;;;8.77;;
63943;SDS011;50121;51.218;7.664;2023-04-15T15:34:21;9.82;;;8.93;;
63943;SDS011;50121;51.218;7.664;2023-04-15T15:37:06;7.88;;;7.18;;
63943;SDS011;50121;51.218;7.664;2023-04-15T15:39:34;8.55;;;7.85;;
63943;SDS011;50121;51.218;7.664;2023-04-15T15:42:02;8.70;;;7.90;;
63943;SDS011;50121;51.218;7.664;2023-04-15T15:44:49;8.60;;;7.80;;
63943;SDS011;50121;51.218;7.664;2023-04-15T15:47:18;8.52;;;7.55;;
63943;SDS011;50121;51.218;7.664;2023-04-15T15:50:22;7.88;;;7.07;;
63943;SDS011;50121;51.218;7.664;2023-04-15T15:53:08;8.07;;;7.40;;
63943;SDS011;50121;51.218;7.664;2023-04-15T15:55:37;7.18;;;6.68;;
63943;SDS011;50121;51.218;7.664;2023-04-15T15:58:21;7.05;;;6.45;;
63943;SDS011;50121;51.218;7.664;2023-04-15T16:00:49;7.38;;;6.78;;
63943;SDS011;50121;51.218;7.664;2023-04-15T16:03:17;6.85;;;6.28;;
63943;SDS011;50121;51.218;7.664;2023-04-15T16:05:44;7.20;;;6.60;;
63943;SDS011;50121;51.218;7.664;2023-04-15T16:08:32;6.85;;;6.25;;
63943;SDS011;50121;51.218;7.664;2023-04-15T16:11:00;7.05;;;6.55;;